createdAt,value
2019-02-14T00:01:19.604Z,21.33
2019-02-14T00:03:49.708Z,20.60
2019-02-14T00:06:19.319Z,20.97
2019-02-14T00:08:50.027Z,20.33
2019-02-14T00:11:19.946Z,21.53
2019-02-14T00:13:49.983Z,22.33
2019-02-14T00:16:20.313Z,22.33
2019-02-14T00:18:50.256Z,22.73
2019-02-14T00:21:20.078Z,21.73
2019-02-14T00:23:50.313Z,22.23
2019-02-14T00:26:20.453Z,22.83
2019-02-14T00:28:50.428Z,23.30
2019-02-14T00:31:20.708Z,22.17
2019-02-14T00:33:50.846Z,22.33
2019-02-14T00:36:21.263Z,21.57
2019-02-14T00:38:51.151Z,21.33
2019-02-14T00:41:21.697Z,22.37
2019-02-14T00:43:51.331Z,21.93
2019-02-14T00:46:21.087Z,23.13
2019-02-14T00:48:51.321Z,24.20
2019-02-14T00:51:21.577Z,23.10
2019-02-14T00:53:51.313Z,23.77
2019-02-14T00:56:21.783Z,22.40
2019-02-14T00:58:52.342Z,20.77
2019-02-14T01:01:22.306Z,20.57
2019-02-14T01:03:52.185Z,22.30
2019-02-14T01:06:21.795Z,22.10
2019-02-14T01:08:52.845Z,22.17
2019-02-14T01:11:23.154Z,22.77
2019-02-14T01:13:53.585Z,23.13
2019-02-14T01:16:23.510Z,24.90
2019-02-14T01:18:54.554Z,23.57
2019-02-14T01:21:24.444Z,24.00
2019-02-14T01:23:54.624Z,23.23
2019-02-14T01:26:25.006Z,22.40
2019-02-14T01:28:55.594Z,23.00
2019-02-14T01:31:25.588Z,23.07
2019-02-14T01:33:55.493Z,23.10
2019-02-14T01:36:25.826Z,21.77
2019-02-14T01:38:56.067Z,22.10
2019-02-14T01:41:26.224Z,22.73
2019-02-14T01:43:56.155Z,24.67
2019-02-14T01:46:26.481Z,22.47
2019-02-14T01:48:56.657Z,22.23
2019-02-14T01:51:27.378Z,21.30
2019-02-14T01:53:57.665Z,20.33
2019-02-14T01:56:27.365Z,19.57
2019-02-14T01:58:57.358Z,20.20
2019-02-14T02:01:27.193Z,21.07
2019-02-14T02:03:57.862Z,19.67
2019-02-14T02:06:28.506Z,19.57
2019-02-14T02:08:59.419Z,19.67
2019-02-14T02:11:29.531Z,20.47
2019-02-14T02:13:59.913Z,19.97
2019-02-14T02:16:30.225Z,19.07
2019-02-14T02:18:59.817Z,17.67
2019-02-14T02:21:29.610Z,17.17
2019-02-14T02:23:59.299Z,17.60
2019-02-14T02:26:29.343Z,17.47
2019-02-14T02:28:59.708Z,17.17
2019-02-14T02:31:29.541Z,17.77
2019-02-14T02:34:00.928Z,17.50
2019-02-14T02:36:30.942Z,17.63
2019-02-14T02:39:00.815Z,16.43
2019-02-14T02:41:30.834Z,16.73
2019-02-14T02:44:00.876Z,16.90
2019-02-14T02:46:30.843Z,16.60
2019-02-14T02:49:00.680Z,15.50
2019-02-14T02:51:31.010Z,15.83
2019-02-14T02:54:00.940Z,16.83
2019-02-14T02:56:31.023Z,16.57
2019-02-14T02:59:01.110Z,16.00
2019-02-14T03:01:31.578Z,15.47
2019-02-14T03:04:01.451Z,16.80
2019-02-14T03:06:31.565Z,15.10
2019-02-14T03:09:02.297Z,16.13
2019-02-14T03:11:35.188Z,16.80
2019-02-14T03:14:05.131Z,16.07
2019-02-14T03:16:35.161Z,16.83
2019-02-14T03:19:05.191Z,17.10
2019-02-14T03:21:34.811Z,16.63
2019-02-14T03:24:04.943Z,15.63
2019-02-14T03:26:36.538Z,15.90
2019-02-14T03:29:06.455Z,15.13
2019-02-14T03:31:37.886Z,16.00
2019-02-14T03:34:07.972Z,15.30
2019-02-14T03:36:38.123Z,15.70
2019-02-14T03:39:08.352Z,15.83
2019-02-14T03:41:39.326Z,16.07
2019-02-14T03:44:09.230Z,15.87
2019-02-14T03:46:39.801Z,16.47
2019-02-14T03:49:10.430Z,16.87
2019-02-14T03:51:40.920Z,16.17
2019-02-14T03:54:11.783Z,15.77
2019-02-14T03:56:42.131Z,16.33
2019-02-14T03:59:12.206Z,16.17
2019-02-14T04:01:42.386Z,16.70
2019-02-14T04:04:13.491Z,16.20
2019-02-14T04:06:44.071Z,16.93
2019-02-14T04:09:15.332Z,17.07
2019-02-14T04:11:46.012Z,18.00
2019-02-14T04:14:15.954Z,18.37
2019-02-14T04:16:46.223Z,18.07
2019-02-14T04:19:16.323Z,17.60
2019-02-14T04:21:46.274Z,17.80
2019-02-14T04:24:16.724Z,18.05
2019-02-14T04:26:47.297Z,16.93
2019-02-14T04:29:17.842Z,18.13
2019-02-14T04:31:47.934Z,18.53
2019-02-14T04:34:18.113Z,18.40
2019-02-14T04:36:48.453Z,18.23
2019-02-14T04:39:19.814Z,21.23
2019-02-14T04:41:51.035Z,18.73
2019-02-14T04:44:21.875Z,17.90
2019-02-14T04:46:51.575Z,17.80
2019-02-14T04:49:22.250Z,18.77
2019-02-14T04:51:51.813Z,18.17
2019-02-14T04:54:21.529Z,16.80
2019-02-14T04:56:51.155Z,16.50
2019-02-14T04:59:20.842Z,17.03
2019-02-14T05:01:51.167Z,16.33
2019-02-14T05:04:21.609Z,16.43
2019-02-14T05:06:53.046Z,16.13
2019-02-14T05:09:23.856Z,17.43
2019-02-14T05:11:53.873Z,19.10
2019-02-14T05:14:24.146Z,19.23
2019-02-14T05:17:22.453Z,19.30
2019-02-14T05:20:24.687Z,20.60
2019-02-14T05:23:02.347Z,19.90
2019-02-14T05:26:11.639Z,19.90
2019-02-14T05:28:53.846Z,24.17
2019-02-14T05:31:24.911Z,26.13
2019-02-14T05:33:54.929Z,27.47
2019-02-14T05:36:24.675Z,28.53
2019-02-14T05:38:54.914Z,27.83
2019-02-14T05:41:25.289Z,26.53
2019-02-14T05:43:55.517Z,24.67
2019-02-14T05:46:25.916Z,22.43
2019-02-14T05:48:56.055Z,21.87
2019-02-14T05:51:26.088Z,22.23
2019-02-14T05:53:56.128Z,21.03
2019-02-14T05:56:25.929Z,21.63
2019-02-14T05:58:55.766Z,21.83
2019-02-14T06:01:26.588Z,20.20
2019-02-14T06:03:56.901Z,21.17
2019-02-14T06:06:27.542Z,20.60
2019-02-14T06:08:57.562Z,20.33
2019-02-14T06:11:27.912Z,21.63
2019-02-14T06:13:58.646Z,22.07
2019-02-14T06:16:28.565Z,24.80
2019-02-14T06:18:59.321Z,24.43
2019-02-14T06:21:29.319Z,24.13
2019-02-14T06:23:59.961Z,26.40
2019-02-14T06:26:30.403Z,25.17
2019-02-14T06:29:00.203Z,24.03
2019-02-14T06:31:30.685Z,22.93
2019-02-14T06:34:00.892Z,24.83
2019-02-14T06:36:31.332Z,31.30
2019-02-14T06:39:01.744Z,29.63
2019-02-14T06:41:35.072Z,27.67
2019-02-14T06:44:05.030Z,29.10
2019-02-14T06:46:36.286Z,32.88
2019-02-14T06:49:06.864Z,32.77
2019-02-14T06:51:36.641Z,32.60
2019-02-14T06:54:07.077Z,30.87
2019-02-14T06:56:37.789Z,30.23
2019-02-14T06:59:07.850Z,31.43
2019-02-14T07:01:37.963Z,32.20
2019-02-14T07:04:09.677Z,38.60
2019-02-14T07:06:40.367Z,36.07
2019-02-14T07:09:10.172Z,33.00
2019-02-14T07:11:40.532Z,33.80
2019-02-14T07:14:11.525Z,31.80
2019-02-14T07:16:42.951Z,32.00
2019-02-14T07:19:13.214Z,33.77
2019-02-14T07:21:43.278Z,31.80
2019-02-14T07:24:13.382Z,32.53
2019-02-14T07:26:43.772Z,30.37
2019-02-14T07:29:14.196Z,28.87
2019-02-14T07:31:44.541Z,27.93
2019-02-14T07:34:14.549Z,27.20
2019-02-14T07:36:44.988Z,27.83
2019-02-14T07:39:14.757Z,28.87
2019-02-14T07:41:44.928Z,26.80
2019-02-14T07:44:14.729Z,26.80
2019-02-14T07:46:44.898Z,28.63
2019-02-14T07:49:14.911Z,31.30
2019-02-14T07:51:45.031Z,31.53
2019-02-14T07:54:15.228Z,32.03
2019-02-14T07:56:45.443Z,31.80
2019-02-14T07:59:16.102Z,30.53
2019-02-14T08:01:46.744Z,28.67
2019-02-14T08:04:17.112Z,32.83
2019-02-14T08:06:47.460Z,28.63
2019-02-14T08:09:17.462Z,26.73
2019-02-14T08:11:47.291Z,24.73
2019-02-14T08:14:17.183Z,24.40
2019-02-14T08:16:47.357Z,22.67
2019-02-14T08:19:17.417Z,22.23
2019-02-14T08:21:48.309Z,22.07
2019-02-14T08:24:17.909Z,22.53
2019-02-14T08:26:48.258Z,30.23
2019-02-14T08:29:18.505Z,33.23
2019-02-14T08:31:48.554Z,26.77
2019-02-14T08:34:19.035Z,22.37
2019-02-14T08:36:49.450Z,22.40
2019-02-14T08:39:19.771Z,23.90
2019-02-14T08:41:50.336Z,22.73
2019-02-14T08:44:20.215Z,21.60
2019-02-14T08:46:50.467Z,22.53
2019-02-14T08:49:21.109Z,22.73
2019-02-14T08:51:51.272Z,21.97
2019-02-14T08:54:24.630Z,22.20
2019-02-14T08:56:54.873Z,22.73
2019-02-14T08:59:25.306Z,23.90
2019-02-14T09:01:57.506Z,23.67
2019-02-14T09:04:27.228Z,24.57
2019-02-14T09:06:57.095Z,24.77
2019-02-14T09:09:27.056Z,23.23
2019-02-14T09:11:57.121Z,23.47
2019-02-14T09:14:27.183Z,23.57
2019-02-14T09:16:58.037Z,23.53
2019-02-14T09:19:27.863Z,23.50
2019-02-14T09:21:58.138Z,22.57
2019-02-14T09:24:28.720Z,24.00
2019-02-14T09:26:58.811Z,24.23
2019-02-14T09:29:29.087Z,22.73
2019-02-14T09:31:59.306Z,22.03
2019-02-14T09:34:29.579Z,22.83
2019-02-14T09:37:00.023Z,21.47
2019-02-14T09:39:30.003Z,22.47
2019-02-14T09:42:00.694Z,21.47
2019-02-14T09:44:30.783Z,22.83
2019-02-14T09:47:01.782Z,22.67
2019-02-14T09:49:31.987Z,23.57
2019-02-14T09:52:03.946Z,23.35
2019-02-14T09:54:33.465Z,23.57
2019-02-14T09:57:04.133Z,23.03
2019-02-14T09:59:36.290Z,20.57
2019-02-14T10:02:06.875Z,19.47
2019-02-14T10:04:37.045Z,18.37
2019-02-14T10:07:07.394Z,20.43
2019-02-14T10:09:37.313Z,21.30
2019-02-14T10:12:08.341Z,21.67
2019-02-14T10:14:39.370Z,21.43
2019-02-14T10:17:09.644Z,21.30
2019-02-14T10:19:40.051Z,20.87
2019-02-14T10:22:10.047Z,22.00
2019-02-14T10:24:40.072Z,22.90
2019-02-14T10:27:10.614Z,22.67
2019-02-14T10:29:40.678Z,23.27
2019-02-14T10:32:12.421Z,23.23
2019-02-14T10:34:42.460Z,23.23
2019-02-14T10:37:12.495Z,23.13
2019-02-14T10:39:42.396Z,23.00
2019-02-14T10:42:14.311Z,20.93
2019-02-14T10:44:44.494Z,23.40
2019-02-14T10:47:14.744Z,22.90
2019-02-14T10:49:45.339Z,21.77
2019-02-14T10:52:16.001Z,22.17
2019-02-14T10:54:46.079Z,22.97
2019-02-14T10:57:16.086Z,23.25
2019-02-14T10:59:46.167Z,22.50
2019-02-14T11:02:16.240Z,21.80
2019-02-14T11:04:47.129Z,23.43
2019-02-14T11:07:17.894Z,22.50
2019-02-14T11:09:47.849Z,23.20
2019-02-14T11:12:18.640Z,23.65
2019-02-14T11:14:48.581Z,22.67
2019-02-14T11:17:18.691Z,21.50
2019-02-14T11:19:48.760Z,22.77
2019-02-14T11:22:18.774Z,23.60
2019-02-14T11:24:49.265Z,21.43
2019-02-14T11:27:19.026Z,21.53
2019-02-14T11:29:49.182Z,23.90
2019-02-14T11:32:19.597Z,22.57
2019-02-14T11:34:49.097Z,23.80
2019-02-14T11:37:18.974Z,23.03
2019-02-14T11:39:48.676Z,23.37
2019-02-14T11:42:18.814Z,23.37
2019-02-14T11:44:49.249Z,25.23
2019-02-14T11:47:19.108Z,22.80
2019-02-14T11:49:49.408Z,22.40
2019-02-14T11:52:20.047Z,22.67
2019-02-14T11:54:50.581Z,23.85
2019-02-14T11:57:20.613Z,22.87
2019-02-14T11:59:50.207Z,22.23
2019-02-14T12:02:19.941Z,21.57
2019-02-14T12:04:49.708Z,23.80
2019-02-14T12:07:19.567Z,23.32
2019-02-14T12:09:49.732Z,22.57
2019-02-14T12:12:20.824Z,22.90
2019-02-14T12:14:52.410Z,23.27
2019-02-14T12:17:22.793Z,22.97
2019-02-14T12:19:52.594Z,22.93
2019-02-14T12:22:22.295Z,23.93
2019-02-14T12:24:52.442Z,23.80
2019-02-14T12:27:22.143Z,24.07
2019-02-14T12:29:52.182Z,23.40
2019-02-14T12:32:22.114Z,23.27
2019-02-14T12:34:52.028Z,22.53
2019-02-14T12:37:22.382Z,23.33
2019-02-14T12:39:52.774Z,23.30
2019-02-14T12:42:23.010Z,21.93
2019-02-14T12:44:52.531Z,25.10
2019-02-14T12:47:22.599Z,24.63
2019-02-14T12:49:52.694Z,23.30
2019-02-14T12:52:23.363Z,24.53
2019-02-14T12:54:52.951Z,24.30
2019-02-14T12:57:22.805Z,23.63
2019-02-14T12:59:52.799Z,24.57
2019-02-14T13:02:22.654Z,23.97
2019-02-14T13:04:52.664Z,24.70
2019-02-14T13:07:23.154Z,24.57
2019-02-14T13:09:53.472Z,24.30
2019-02-14T13:12:24.296Z,26.65
2019-02-14T13:14:54.706Z,25.20
2019-02-14T13:17:25.192Z,24.43
2019-02-14T13:19:56.885Z,24.90
2019-02-14T13:22:27.516Z,24.50
2019-02-14T13:24:57.459Z,24.63
2019-02-14T13:27:27.613Z,26.80
2019-02-14T13:29:58.079Z,26.33
2019-02-14T13:32:28.436Z,27.63
2019-02-14T13:34:58.725Z,25.23
2019-02-14T13:37:28.839Z,26.00
2019-02-14T13:39:58.827Z,25.67
2019-02-14T13:42:29.134Z,25.47
2019-02-14T13:44:58.854Z,25.83
2019-02-14T13:47:28.847Z,24.47
2019-02-14T13:49:59.065Z,26.13
2019-02-14T13:52:29.418Z,25.03
2019-02-14T13:54:59.846Z,26.48
2019-02-14T13:57:29.535Z,26.13
2019-02-14T13:59:59.474Z,24.53
2019-02-14T14:02:29.609Z,26.37
2019-02-14T14:04:59.586Z,26.50
2019-02-14T14:07:39.925Z,26.67
2019-02-14T14:10:02.132Z,26.20
2019-02-14T14:12:53.169Z,26.07
2019-02-14T14:15:23.062Z,27.50
2019-02-14T14:17:53.367Z,24.77
2019-02-14T14:20:23.563Z,25.93
2019-02-14T14:22:54.413Z,25.73
2019-02-14T14:25:24.825Z,24.77
2019-02-14T14:27:55.233Z,25.43
2019-02-14T14:30:25.786Z,26.93
2019-02-14T14:32:56.215Z,27.30
2019-02-14T14:35:31.984Z,26.03
2019-02-14T14:38:02.303Z,27.50
2019-02-14T14:40:32.515Z,27.43
2019-02-14T14:43:21.840Z,27.07
2019-02-14T14:46:06.996Z,28.62
2019-02-14T14:48:39.021Z,28.00
2019-02-14T14:51:10.605Z,26.67
2019-02-14T14:53:41.149Z,28.50
2019-02-14T14:56:11.688Z,28.37
2019-02-14T14:58:45.508Z,28.40
2019-02-14T15:01:14.924Z,27.93
2019-02-14T15:03:44.703Z,28.73
2019-02-14T15:06:14.235Z,28.63
2019-02-14T15:08:44.208Z,30.27
2019-02-14T15:11:14.142Z,30.57
2019-02-14T15:13:43.891Z,30.47
2019-02-14T15:16:13.539Z,29.67
2019-02-14T15:18:43.204Z,29.43
2019-02-14T15:21:14.376Z,37.40
2019-02-14T15:23:43.592Z,33.30
2019-02-14T15:26:13.272Z,31.40
2019-02-14T15:28:44.032Z,30.40
2019-02-14T15:31:13.882Z,29.63
2019-02-14T15:33:43.573Z,28.27
2019-02-14T15:36:13.522Z,29.00
2019-02-14T15:38:43.078Z,30.90
2019-02-14T15:41:13.158Z,29.03
2019-02-14T15:43:44.024Z,29.80
2019-02-14T15:46:13.737Z,30.40
2019-02-14T15:48:43.786Z,30.40
2019-02-14T15:51:16.218Z,32.30
2019-02-14T15:53:46.413Z,33.37
2019-02-14T15:56:27.658Z,34.53
2019-02-14T16:17:11.833Z,54.00
2019-02-14T16:19:42.917Z,50.13
2019-02-14T16:22:12.866Z,47.87
2019-02-14T16:24:42.999Z,49.40
2019-02-14T16:27:13.594Z,47.23
2019-02-14T16:29:43.296Z,51.07
2019-02-14T16:32:13.178Z,49.80
2019-02-14T16:34:44.571Z,50.60
2019-02-14T16:37:14.679Z,50.43
2019-02-14T16:39:51.583Z,54.77
2019-02-14T16:42:15.455Z,53.27
2019-02-14T16:44:45.404Z,52.90
2019-02-14T16:47:14.852Z,49.97
2019-02-14T16:49:44.684Z,47.53
2019-02-14T16:52:14.697Z,46.23
2019-02-14T16:54:45.253Z,45.27
2019-02-14T16:57:15.562Z,47.57
2019-02-14T16:59:45.357Z,49.10
2019-02-14T17:02:15.055Z,46.00
2019-02-14T17:04:44.893Z,43.93
2019-02-14T17:07:14.705Z,47.47
2019-02-14T17:09:44.263Z,99.93
2019-02-14T17:12:14.579Z,59.07
2019-02-14T17:14:45.459Z,54.40
2019-02-14T17:17:15.054Z,49.50
2019-02-14T17:21:01.310Z,46.23
2019-02-14T17:23:35.177Z,45.93
2019-02-14T17:26:04.856Z,47.33
2019-02-14T17:28:35.117Z,52.30
2019-02-14T17:31:04.809Z,51.77
2019-02-14T17:33:36.932Z,55.47
2019-02-14T17:36:06.893Z,56.40
2019-02-14T17:38:37.954Z,54.50
2019-02-14T17:41:09.347Z,51.77
2019-02-14T17:43:39.715Z,52.57
2019-02-14T17:46:10.250Z,55.50
2019-02-14T17:48:41.468Z,56.47
2019-02-14T17:51:13.542Z,57.10
2019-02-14T17:53:44.026Z,58.17
2019-02-14T17:56:14.517Z,61.20
2019-02-14T17:58:46.043Z,59.90
2019-02-14T18:01:15.963Z,62.67
2019-02-14T18:03:46.636Z,63.97
2019-02-14T18:06:16.772Z,65.83
2019-02-14T18:08:48.585Z,73.60
2019-02-14T18:11:18.947Z,67.20
2019-02-14T18:13:49.537Z,64.97
2019-02-14T18:16:21.914Z,61.87
2019-02-14T18:18:53.358Z,61.50
2019-02-14T18:21:25.327Z,70.07
2019-02-14T18:23:56.795Z,82.60
2019-02-14T18:26:27.825Z,72.35
2019-02-14T18:29:01.691Z,57.47
2019-02-14T18:31:33.526Z,54.90
2019-02-14T18:34:04.766Z,50.77
2019-02-14T18:36:36.103Z,51.13
2019-02-14T18:39:08.448Z,51.13
2019-02-14T18:41:57.779Z,50.47
2019-02-14T18:44:29.365Z,53.97
2019-02-14T18:46:59.909Z,58.47
2019-02-14T18:49:30.496Z,59.03
2019-02-14T18:52:01.096Z,60.10
2019-02-14T18:54:32.197Z,57.63
2019-02-14T18:57:03.618Z,64.93
2019-02-14T18:59:37.999Z,94.23
2019-02-14T19:02:09.205Z,57.77
2019-02-14T19:04:40.151Z,55.70
2019-02-14T19:07:11.366Z,55.00
2019-02-14T19:09:44.368Z,53.77
2019-02-14T19:12:16.611Z,54.03
2019-02-14T19:14:47.974Z,57.73
2019-02-14T19:17:19.014Z,60.70
2019-02-14T19:19:49.579Z,56.47
2019-02-14T19:22:21.235Z,55.73
2019-02-14T19:24:52.445Z,57.63
2019-02-14T19:27:23.583Z,62.90
2019-02-14T19:29:54.844Z,61.27
2019-02-14T19:32:25.915Z,65.37
2019-02-14T19:34:57.183Z,69.73
2019-02-14T19:37:28.410Z,70.70
2019-02-14T19:39:59.553Z,70.97
2019-02-14T19:42:42.102Z,68.50
2019-02-14T19:45:14.477Z,71.97
2019-02-14T19:47:46.321Z,69.43
2019-02-14T19:50:20.036Z,64.40
2019-02-14T19:52:51.193Z,62.67
2019-02-14T19:55:22.104Z,61.67
2019-02-14T19:57:53.571Z,58.63
2019-02-14T20:00:24.940Z,58.03
2019-02-14T20:02:56.003Z,56.70
2019-02-14T20:05:27.252Z,56.33
2019-02-14T20:07:58.082Z,56.17
2019-02-14T20:10:29.083Z,52.30
2019-02-14T20:13:00.900Z,56.03
2019-02-14T20:15:37.159Z,58.97
2019-02-14T20:18:05.272Z,58.13
2019-02-14T20:20:37.046Z,57.40
2019-02-14T20:23:09.148Z,56.13
2019-02-14T20:25:46.137Z,51.80
2019-02-14T20:28:17.481Z,58.73
2019-02-14T20:30:48.613Z,62.73
2019-02-14T20:33:20.124Z,58.70
2019-02-14T20:35:51.778Z,59.45
2019-02-14T20:38:22.799Z,52.43
2019-02-14T20:40:55.005Z,54.67
2019-02-14T20:43:25.889Z,53.63
2019-02-14T20:45:57.236Z,53.70
2019-02-14T20:48:28.708Z,56.50
2019-02-14T20:51:00.072Z,54.67
2019-02-14T20:53:30.287Z,53.80
2019-02-14T20:56:06.038Z,53.90
2019-02-14T20:58:37.505Z,52.37
2019-02-14T21:01:10.302Z,51.17
2019-02-14T21:03:41.452Z,53.53
2019-02-14T21:06:12.888Z,55.03
2019-02-14T21:08:43.911Z,53.90
2019-02-14T21:11:14.596Z,58.57
2019-02-14T21:13:46.436Z,54.67
2019-02-14T21:16:17.713Z,56.80
2019-02-14T21:18:49.737Z,47.77
2019-02-14T21:21:20.945Z,43.17
2019-02-14T21:23:51.175Z,40.57
2019-02-14T21:26:22.325Z,37.20
2019-02-14T21:28:52.935Z,44.07
2019-02-14T21:31:27.777Z,40.73
2019-02-14T21:33:59.047Z,46.27
2019-02-14T21:36:29.640Z,39.70
2019-02-14T21:39:00.267Z,35.30
2019-02-14T21:41:30.623Z,36.50
2019-02-14T21:44:01.153Z,32.60
2019-02-14T21:46:32.564Z,31.07
2019-02-14T21:49:03.104Z,31.80
2019-02-14T21:51:34.101Z,32.77
2019-02-14T21:54:04.290Z,32.17
2019-02-14T21:56:35.120Z,35.47
2019-02-14T21:59:05.287Z,33.97
2019-02-14T22:01:35.766Z,32.60
2019-02-14T22:04:05.818Z,32.27
2019-02-14T22:06:36.323Z,31.03
2019-02-14T22:09:07.108Z,30.67
2019-02-14T22:11:37.455Z,30.87
2019-02-14T22:14:07.378Z,29.93
2019-02-14T22:16:37.350Z,24.40
2019-02-14T22:19:08.226Z,24.53
2019-02-14T22:21:38.532Z,24.57
2019-02-14T22:24:08.746Z,24.37
2019-02-14T22:26:38.738Z,25.40
2019-02-14T22:29:09.321Z,25.27
2019-02-14T22:31:39.298Z,26.30
2019-02-14T22:34:10.320Z,23.50
2019-02-14T22:36:40.310Z,23.00
2019-02-14T22:39:10.587Z,22.20
2019-02-14T22:41:40.791Z,22.53
2019-02-14T22:44:11.595Z,22.73
2019-02-14T22:46:41.978Z,23.13
2019-02-14T22:49:12.590Z,23.43
2019-02-14T22:51:43.008Z,23.00
2019-02-14T22:54:13.608Z,20.13
2019-02-14T22:56:44.435Z,19.83
2019-02-14T22:59:14.976Z,16.87
2019-02-14T23:01:47.581Z,19.50
2019-02-14T23:04:17.753Z,18.93
2019-02-14T23:06:47.812Z,20.67
2019-02-14T23:09:19.373Z,19.27
2019-02-14T23:11:49.416Z,19.77
2019-02-14T23:14:19.389Z,20.60
2019-02-14T23:16:50.229Z,19.47
2019-02-14T23:19:21.217Z,19.50
2019-02-14T23:21:51.666Z,18.97
2019-02-14T23:24:21.584Z,18.27
2019-02-14T23:26:51.989Z,18.13
2019-02-14T23:29:22.234Z,17.73
2019-02-14T23:31:52.423Z,18.87
2019-02-14T23:34:22.304Z,18.73
2019-02-14T23:36:52.498Z,17.60
2019-02-14T23:39:22.367Z,17.97
2019-02-14T23:41:52.857Z,18.87
2019-02-14T23:44:23.041Z,19.13
2019-02-14T23:46:53.651Z,18.00
2019-02-14T23:49:24.212Z,18.17
2019-02-14T23:51:54.669Z,18.50
2019-02-14T23:54:24.925Z,17.70
2019-02-14T23:56:55.083Z,17.60
2019-02-14T23:59:25.542Z,17.20
